createdAt,value
2018-07-19T00:02:22.408Z,48.53
2018-07-19T00:04:50.456Z,48.50
2018-07-19T00:07:18.500Z,47.92
2018-07-19T00:09:46.541Z,48.42
2018-07-19T00:12:14.606Z,48.58
2018-07-19T00:14:42.916Z,48.56
2018-07-19T00:17:10.963Z,48.15
2018-07-19T00:19:38.988Z,47.79
2018-07-19T00:22:07.019Z,47.33
2018-07-19T00:24:35.185Z,48.78
2018-07-19T00:27:09.470Z,47.65
2018-07-19T00:29:37.573Z,47.73
2018-07-19T00:32:05.604Z,48.07
2018-07-19T00:34:33.727Z,47.35
2018-07-19T00:37:01.920Z,47.62
2018-07-19T00:39:29.959Z,47.41
2018-07-19T00:41:57.991Z,47.10
2018-07-19T00:44:26.017Z,47.81
2018-07-19T00:46:54.053Z,47.22
2018-07-19T00:49:22.080Z,47.51
2018-07-19T00:51:50.121Z,47.72
2018-07-19T00:54:18.186Z,47.08
2018-07-19T00:56:46.197Z,47.02
2018-07-19T00:59:14.243Z,46.68
2018-07-19T01:01:42.270Z,47.11
2018-07-19T01:04:10.316Z,47.49
2018-07-19T01:06:38.346Z,47.83
2018-07-19T01:09:08.584Z,46.96
2018-07-19T01:11:36.705Z,46.98
2018-07-19T01:14:04.732Z,47.25
2018-07-19T01:16:32.761Z,47.21
2018-07-19T01:19:00.802Z,47.28
2018-07-19T01:21:29.113Z,47.26
2018-07-19T01:23:57.144Z,47.29
2018-07-19T01:26:25.173Z,47.27
2018-07-19T01:28:53.343Z,47.28
2018-07-19T01:31:21.373Z,48.18
2018-07-19T01:33:49.382Z,47.24
2018-07-19T01:36:17.440Z,47.28
2018-07-19T01:38:45.469Z,47.64
2018-07-19T01:41:24.941Z,47.34
2018-07-19T01:43:53.041Z,47.27
2018-07-19T01:46:21.062Z,48.24
2018-07-19T01:48:49.119Z,47.98
2018-07-19T01:51:17.205Z,48.47
2018-07-19T01:53:45.188Z,47.71
2018-07-19T01:56:13.229Z,47.81
2018-07-19T01:58:41.257Z,48.27
2018-07-19T02:01:09.289Z,48.44
2018-07-19T02:03:37.320Z,48.85
2018-07-19T02:06:05.598Z,48.36
2018-07-19T02:08:33.820Z,48.20
2018-07-19T02:11:01.861Z,48.66
2018-07-19T02:13:29.898Z,49.21
2018-07-19T02:15:57.911Z,48.61
2018-07-19T02:18:25.944Z,49.14
2018-07-19T02:20:54.412Z,49.38
2018-07-19T02:23:22.450Z,49.58
2018-07-19T02:25:50.473Z,49.81
2018-07-19T02:28:18.532Z,49.89
2018-07-19T02:30:46.557Z,49.67
2018-07-19T02:33:14.591Z,50.04
2018-07-19T02:35:42.612Z,50.43
2018-07-19T02:38:10.620Z,50.31
2018-07-19T02:40:38.640Z,50.73
2018-07-19T02:43:06.667Z,50.33
2018-07-19T02:45:34.684Z,50.49
2018-07-19T02:48:02.700Z,50.70
2018-07-19T02:50:30.726Z,51.37
2018-07-19T02:52:58.786Z,50.79
2018-07-19T02:55:26.797Z,51.80
2018-07-19T02:57:54.836Z,51.55
2018-07-19T03:00:22.848Z,51.73
2018-07-19T03:02:50.876Z,51.88
2018-07-19T03:05:18.904Z,52.01
2018-07-19T03:07:46.991Z,52.10
2018-07-19T03:10:14.942Z,52.59
2018-07-19T03:12:43.100Z,51.83
2018-07-19T03:15:11.084Z,52.79
2018-07-19T03:17:39.120Z,52.21
2018-07-19T03:20:07.161Z,52.67
2018-07-19T03:22:41.774Z,52.79
2018-07-19T03:25:09.861Z,53.46
2018-07-19T03:27:37.880Z,53.37
2018-07-19T03:30:05.926Z,53.54
2018-07-19T03:32:33.964Z,53.09
2018-07-19T03:35:01.997Z,53.23
2018-07-19T03:37:30.213Z,53.68
2018-07-19T03:39:58.247Z,53.03
2018-07-19T03:42:26.281Z,53.05
2018-07-19T03:44:54.326Z,53.11
2018-07-19T03:47:22.444Z,53.11
2018-07-19T03:49:50.624Z,53.58
2018-07-19T03:52:18.685Z,53.89
2018-07-19T03:54:46.715Z,53.54
2018-07-19T03:57:14.745Z,53.52
2018-07-19T03:59:42.777Z,53.38
2018-07-19T04:02:11.059Z,53.23
2018-07-19T04:04:39.073Z,52.89
2018-07-19T04:07:07.368Z,52.72
2018-07-19T04:09:35.580Z,52.71
2018-07-19T04:12:03.744Z,52.61
2018-07-19T04:14:31.753Z,52.98
2018-07-19T04:16:59.783Z,52.26
2018-07-19T04:19:27.788Z,53.27
2018-07-19T04:21:55.814Z,53.08
2018-07-19T04:24:23.828Z,52.43
2018-07-19T04:26:51.841Z,52.74
2018-07-19T04:29:21.180Z,52.84
2018-07-19T04:31:49.204Z,52.22
2018-07-19T04:34:17.221Z,51.85
2018-07-19T04:36:45.240Z,52.64
2018-07-19T04:39:13.262Z,52.60
2018-07-19T04:41:41.288Z,52.08
2018-07-19T04:44:09.304Z,51.80
2018-07-19T04:46:37.332Z,51.87
2018-07-19T04:49:05.537Z,51.53
2018-07-19T04:51:33.585Z,52.34
2018-07-19T04:54:01.598Z,52.09
2018-07-19T04:56:29.633Z,52.14
2018-07-19T04:58:57.801Z,51.23
2018-07-19T05:01:25.860Z,51.21
2018-07-19T05:03:53.913Z,51.30
2018-07-19T05:06:21.944Z,51.06
2018-07-19T05:08:49.979Z,51.21
2018-07-19T05:11:18.144Z,51.13
2018-07-19T05:13:46.168Z,50.96
2018-07-19T05:16:14.206Z,51.33
2018-07-19T05:18:42.222Z,50.46
2018-07-19T05:21:10.455Z,50.83
2018-07-19T05:23:40.126Z,51.19
2018-07-19T05:26:08.150Z,50.77
2018-07-19T05:28:36.180Z,49.73
2018-07-19T05:31:05.160Z,50.37
2018-07-19T05:33:33.216Z,49.83
2018-07-19T05:36:01.244Z,50.38
2018-07-19T05:38:31.829Z,50.35
2018-07-19T05:40:59.875Z,50.48
2018-07-19T05:43:27.900Z,50.71
2018-07-19T05:45:55.937Z,50.48
2018-07-19T05:48:24.121Z,49.83
2018-07-19T05:50:52.167Z,49.79
2018-07-19T05:53:20.440Z,49.63
2018-07-19T05:55:48.465Z,49.89
2018-07-19T05:58:16.477Z,49.35
2018-07-19T06:00:44.645Z,49.60
2018-07-19T06:03:12.678Z,48.99
2018-07-19T06:05:40.698Z,49.48
2018-07-19T06:08:08.737Z,49.65
2018-07-19T06:10:36.756Z,48.93
2018-07-19T06:13:04.811Z,48.93
2018-07-19T06:15:33.052Z,48.22
2018-07-19T06:18:01.085Z,48.52
2018-07-19T06:20:29.132Z,48.64
2018-07-19T06:22:57.155Z,48.79
2018-07-19T06:25:25.176Z,47.63
2018-07-19T06:27:53.284Z,47.41
2018-07-19T06:30:21.320Z,47.78
2018-07-19T06:32:49.324Z,47.83
2018-07-19T06:35:17.349Z,47.75
2018-07-19T06:37:45.530Z,48.02
2018-07-19T06:40:13.609Z,47.06
2018-07-19T06:42:41.653Z,47.11
2018-07-19T06:45:09.677Z,46.91
2018-07-19T06:47:37.682Z,46.82
2018-07-19T06:50:05.700Z,46.09
2018-07-19T06:52:33.713Z,46.47
2018-07-19T06:55:01.740Z,46.65
2018-07-19T06:57:29.837Z,46.35
2018-07-19T06:59:57.811Z,46.14
2018-07-19T07:02:25.833Z,46.60
2018-07-19T07:04:53.918Z,45.83
2018-07-19T07:07:22.072Z,46.07
2018-07-19T07:09:50.097Z,46.09
2018-07-19T07:12:18.393Z,45.67
2018-07-19T07:14:46.393Z,44.87
2018-07-19T07:17:14.434Z,44.49
2018-07-19T07:19:42.484Z,43.75
2018-07-19T07:22:10.502Z,44.85
2018-07-19T07:24:38.520Z,44.30
2018-07-19T07:27:06.652Z,43.90
2018-07-19T07:29:34.680Z,43.71
2018-07-19T07:32:02.843Z,44.12
2018-07-19T07:34:30.844Z,43.47
2018-07-19T07:36:58.865Z,43.18
2018-07-19T07:39:26.893Z,43.35
2018-07-19T07:41:54.909Z,42.64
2018-07-19T07:44:22.935Z,42.44
2018-07-19T07:46:50.943Z,43.31
2018-07-19T07:49:18.965Z,42.40
2018-07-19T07:51:46.989Z,42.58
2018-07-19T07:54:15.183Z,42.05
2018-07-19T07:56:43.140Z,42.13
2018-07-19T08:01:38.259Z,40.93
2018-07-19T08:04:06.271Z,40.81
2018-07-19T08:06:34.442Z,41.21
2018-07-19T08:09:02.507Z,41.04
2018-07-19T08:11:31.625Z,41.06
2018-07-19T08:13:59.635Z,40.27
2018-07-19T08:16:27.660Z,41.37
2018-07-19T08:18:55.669Z,39.59
2018-07-19T08:21:23.702Z,39.64
2018-07-19T08:23:51.726Z,39.18
2018-07-19T08:26:19.740Z,38.59
2018-07-19T08:28:47.764Z,37.95
2018-07-19T08:31:15.787Z,37.65
2018-07-19T08:33:43.942Z,37.93
2018-07-19T08:36:11.955Z,36.22
2018-07-19T08:38:39.952Z,36.02
2018-07-19T08:41:07.983Z,34.44
2018-07-19T08:43:35.984Z,34.46
2018-07-19T08:46:04.965Z,35.23
2018-07-19T08:48:32.984Z,34.46
2018-07-19T08:51:01.061Z,34.16
2018-07-19T08:53:29.081Z,33.84
2018-07-19T08:55:57.264Z,33.98
2018-07-19T08:58:25.288Z,33.26
2018-07-19T09:00:53.309Z,32.66
2018-07-19T09:03:22.019Z,32.65
2018-07-19T09:05:50.080Z,32.21
2018-07-19T09:08:18.100Z,32.76
2018-07-19T09:10:46.117Z,31.58
2018-07-19T09:13:14.125Z,32.60
2018-07-19T09:15:42.128Z,32.06
2018-07-19T09:18:10.164Z,31.01
2018-07-19T09:20:38.184Z,30.62
2018-07-19T09:23:06.279Z,30.03
2018-07-19T09:25:34.312Z,29.63
2018-07-19T09:28:02.360Z,30.36
2018-07-19T09:30:30.382Z,30.14
2018-07-19T09:32:58.642Z,29.32
2018-07-19T09:35:26.710Z,28.56
2018-07-19T09:37:54.736Z,27.73
2018-07-19T09:40:22.769Z,27.06
2018-07-19T09:42:50.972Z,26.90
2018-07-19T09:45:18.984Z,27.63
2018-07-19T09:47:47.321Z,27.84
2018-07-19T09:50:15.369Z,26.55
2018-07-19T09:52:43.419Z,27.39
2018-07-19T09:55:11.437Z,27.36
2018-07-19T09:57:39.474Z,27.42
2018-07-19T10:00:18.284Z,27.33
2018-07-19T10:02:46.328Z,27.19
2018-07-19T10:05:14.348Z,26.80
2018-07-19T10:07:42.467Z,27.95
2018-07-19T10:10:10.516Z,28.53
2018-07-19T10:12:38.562Z,27.65
2018-07-19T10:15:07.312Z,26.99
2018-07-19T10:17:35.552Z,28.04
2018-07-19T10:20:03.593Z,27.75
2018-07-19T10:22:31.605Z,28.05
2018-07-19T10:24:59.640Z,27.35
2018-07-19T10:27:27.677Z,28.26
2018-07-19T10:29:55.709Z,26.90
2018-07-19T10:32:23.836Z,27.61
2018-07-19T10:34:51.769Z,26.18
2018-07-19T10:37:19.813Z,26.52
2018-07-19T10:39:47.841Z,25.74
2018-07-19T10:42:15.864Z,26.50
2018-07-19T10:44:44.037Z,25.40
2018-07-19T10:47:12.079Z,25.86
2018-07-19T10:49:40.097Z,25.81
2018-07-19T10:52:08.140Z,26.66
2018-07-19T10:54:36.354Z,25.66
2018-07-19T10:57:05.684Z,24.86
2018-07-19T10:59:33.716Z,25.03
2018-07-19T11:02:01.760Z,25.66
2018-07-19T11:04:29.818Z,26.49
2018-07-19T11:06:57.860Z,26.22
2018-07-19T11:09:25.911Z,26.51
2018-07-19T11:11:53.935Z,26.40
2018-07-19T11:14:21.988Z,27.39
2018-07-19T11:16:50.181Z,25.67
2018-07-19T11:19:18.205Z,26.34
2018-07-19T11:21:46.253Z,26.44
2018-07-19T11:24:14.288Z,26.44
2018-07-19T11:26:42.301Z,26.19
2018-07-19T11:29:10.333Z,26.97
2018-07-19T11:31:38.518Z,26.39
2018-07-19T11:34:06.560Z,26.04
2018-07-19T11:36:34.600Z,26.07
2018-07-19T11:39:02.640Z,25.35
2018-07-19T11:41:30.728Z,26.01
2018-07-19T11:43:58.713Z,24.92
2018-07-19T11:46:26.747Z,24.86
2018-07-19T11:48:54.773Z,24.34
2018-07-19T11:51:22.809Z,24.47
2018-07-19T11:53:50.879Z,24.41
2018-07-19T11:56:19.010Z,24.48
2018-07-19T11:58:47.032Z,24.95
2018-07-19T12:01:19.358Z,24.73
2018-07-19T12:03:47.394Z,24.63
2018-07-19T12:06:15.465Z,24.73
2018-07-19T12:08:43.500Z,25.08
2018-07-19T12:11:11.566Z,24.98
2018-07-19T12:13:39.613Z,24.31
2018-07-19T12:16:07.680Z,24.55
2018-07-19T12:18:35.963Z,24.97
2018-07-19T12:21:04.907Z,25.28
2018-07-19T12:23:32.929Z,25.45
2018-07-19T12:26:01.322Z,24.61
2018-07-19T12:28:29.375Z,25.31
2018-07-19T12:30:57.410Z,25.23
2018-07-19T12:33:25.456Z,25.54
2018-07-19T12:35:53.488Z,24.50
2018-07-19T12:38:21.516Z,24.94
2018-07-19T12:40:49.851Z,26.13
2018-07-19T12:43:17.865Z,25.65
2018-07-19T12:45:45.886Z,24.64
2018-07-19T12:48:13.924Z,25.06
2018-07-19T12:50:41.945Z,25.04
2018-07-19T12:53:11.184Z,25.34
2018-07-19T12:55:39.196Z,25.18
2018-07-19T12:58:07.238Z,26.22
2018-07-19T13:00:35.293Z,25.13
2018-07-19T13:03:03.358Z,25.64
2018-07-19T13:05:31.413Z,25.18
2018-07-19T13:07:59.436Z,24.98
2018-07-19T13:10:27.453Z,26.02
2018-07-19T13:12:55.519Z,25.80
2018-07-19T13:15:23.560Z,25.25
2018-07-19T13:17:51.940Z,25.88
2018-07-19T13:20:19.984Z,25.26
2018-07-19T13:22:48.000Z,25.54
2018-07-19T13:25:16.046Z,25.56
2018-07-19T13:27:44.436Z,26.21
2018-07-19T13:30:12.504Z,25.33
2018-07-19T13:32:40.537Z,25.27
2018-07-19T13:35:08.629Z,25.66
2018-07-19T13:37:36.680Z,25.04
2018-07-19T13:40:05.041Z,24.73
2018-07-19T13:42:33.208Z,25.01
2018-07-19T13:45:01.584Z,24.55
2018-07-19T13:47:29.665Z,24.81
2018-07-19T13:49:57.745Z,24.94
2018-07-19T13:55:15.828Z,26.16
2018-07-19T13:57:43.879Z,26.06
2018-07-19T14:00:11.941Z,25.58
2018-07-19T14:02:40.756Z,25.25
2018-07-19T14:05:08.882Z,25.28
2018-07-19T14:07:36.924Z,25.35
2018-07-19T14:10:05.401Z,25.47
2018-07-19T14:12:33.630Z,25.11
2018-07-19T14:15:01.654Z,24.75
2018-07-19T14:17:29.699Z,24.82
2018-07-19T14:19:57.734Z,25.47
2018-07-19T14:22:25.778Z,26.09
2018-07-19T14:24:54.001Z,25.16
2018-07-19T14:27:22.048Z,25.18
2018-07-19T14:29:50.081Z,25.18
2018-07-19T14:32:18.152Z,25.70
2018-07-19T14:34:46.202Z,25.82
2018-07-19T14:37:14.232Z,26.13
2018-07-19T14:39:42.720Z,25.38
2018-07-19T14:45:00.946Z,25.77
2018-07-19T14:47:29.023Z,25.33
2018-07-19T14:49:57.071Z,25.66
2018-07-19T14:52:32.359Z,26.15
2018-07-19T14:55:00.382Z,26.04
2018-07-19T14:57:28.414Z,26.58
2018-07-19T14:59:56.443Z,25.96
2018-07-19T15:02:24.469Z,25.83
2018-07-19T15:04:52.504Z,26.23
2018-07-19T15:07:20.700Z,25.76
2018-07-19T15:09:48.754Z,25.31
2018-07-19T15:12:16.779Z,25.46
2018-07-19T15:14:44.808Z,26.24
2018-07-19T15:17:12.989Z,26.09
2018-07-19T15:19:41.042Z,26.26
2018-07-19T15:22:09.128Z,25.57
2018-07-19T15:24:37.508Z,26.50
2018-07-19T15:27:05.565Z,26.50
2018-07-19T15:29:33.600Z,26.09
2018-07-19T15:32:01.642Z,26.93
2018-07-19T15:34:29.676Z,27.17
2018-07-19T15:36:57.716Z,26.70
2018-07-19T15:39:25.941Z,26.94
2018-07-19T15:41:54.017Z,26.51
2018-07-19T15:44:22.085Z,26.87
2018-07-19T15:46:50.160Z,27.00
2018-07-19T15:49:18.225Z,26.42
2018-07-19T15:51:46.256Z,27.41
2018-07-19T15:54:14.994Z,27.51
2018-07-19T15:56:43.023Z,28.49
2018-07-19T15:59:11.241Z,27.78
2018-07-19T16:01:39.339Z,26.40
2018-07-19T16:04:07.324Z,27.96
2018-07-19T16:06:35.361Z,27.57
2018-07-19T16:09:06.093Z,27.08
2018-07-19T16:11:34.237Z,26.69
2018-07-19T16:14:02.290Z,27.92
2018-07-19T16:16:30.314Z,28.35
2018-07-19T16:18:58.398Z,27.67
2018-07-19T16:21:26.848Z,28.71
2018-07-19T16:23:54.887Z,27.50
2018-07-19T16:26:22.972Z,27.59
2018-07-19T16:28:51.105Z,28.38
2018-07-19T16:31:19.267Z,27.99
2018-07-19T16:33:47.311Z,28.03
2018-07-19T16:36:15.409Z,27.72
2018-07-19T16:38:43.400Z,28.08
2018-07-19T16:41:11.450Z,29.46
2018-07-19T16:43:39.477Z,28.57
2018-07-19T16:46:07.510Z,28.46
2018-07-19T16:48:35.544Z,28.64
2018-07-19T16:51:03.558Z,28.47
2018-07-19T16:53:31.592Z,28.47
2018-07-19T16:55:59.625Z,28.99
2018-07-19T16:58:27.686Z,28.66
2018-07-19T17:00:55.708Z,28.41
2018-07-19T17:03:23.767Z,27.81
2018-07-19T17:05:52.117Z,28.79
2018-07-19T17:08:20.153Z,28.84
2018-07-19T17:10:48.170Z,29.16
2018-07-19T17:13:16.197Z,28.24
2018-07-19T17:15:44.398Z,28.56
2018-07-19T17:18:12.451Z,28.69
2018-07-19T17:20:40.492Z,28.82
2018-07-19T17:23:08.527Z,28.81
2018-07-19T17:25:36.589Z,29.51
2018-07-19T17:28:05.716Z,29.59
2018-07-19T17:30:33.731Z,28.23
2018-07-19T17:33:01.746Z,28.35
2018-07-19T17:38:05.984Z,28.33
2018-07-19T17:40:34.353Z,28.49
2018-07-19T17:43:02.429Z,29.89
2018-07-19T17:45:30.444Z,29.67
2018-07-19T17:47:58.597Z,29.58
2018-07-19T17:50:27.072Z,30.31
2018-07-19T17:52:55.424Z,30.46
2018-07-19T17:55:23.675Z,31.85
2018-07-19T17:57:52.440Z,32.12
2018-07-19T18:00:20.740Z,31.08
2018-07-19T18:02:50.341Z,31.92
2018-07-19T18:05:18.382Z,31.42
2018-07-19T18:07:46.407Z,31.60
2018-07-19T18:10:14.436Z,32.02
2018-07-19T18:15:32.580Z,33.37
2018-07-19T18:18:00.597Z,33.57
2018-07-19T18:20:28.815Z,34.08
2018-07-19T18:22:57.025Z,34.20
2018-07-19T18:26:09.649Z,34.43
2018-07-19T18:28:37.660Z,34.43
2018-07-19T18:31:06.263Z,33.85
2018-07-19T18:33:34.445Z,33.77
2018-07-19T18:36:02.794Z,34.11
2018-07-19T18:38:30.818Z,34.04
2018-07-19T18:40:59.017Z,35.45
2018-07-19T18:43:27.073Z,35.54
2018-07-19T18:45:55.098Z,35.10
2018-07-19T18:48:23.117Z,34.97
2018-07-19T18:50:51.276Z,35.48
2018-07-19T18:53:19.340Z,35.73
2018-07-19T18:55:47.405Z,36.32
2018-07-19T18:58:15.461Z,37.04
2018-07-19T19:00:43.486Z,37.12
2018-07-19T19:03:11.525Z,36.37
2018-07-19T19:05:41.238Z,36.44
2018-07-19T19:08:09.312Z,36.48
2018-07-19T19:10:37.333Z,36.69
2018-07-19T19:13:05.349Z,36.99
2018-07-19T19:15:33.376Z,37.22
2018-07-19T19:18:01.398Z,37.77
2018-07-19T19:20:29.661Z,37.56
2018-07-19T19:22:57.694Z,38.58
2018-07-19T19:25:25.701Z,38.35
2018-07-19T19:27:53.933Z,38.82
2018-07-19T19:30:22.572Z,38.22
2018-07-19T19:32:50.929Z,39.18
2018-07-19T19:35:18.990Z,38.52
2018-07-19T19:37:47.105Z,38.63
2018-07-19T19:40:15.257Z,38.69
2018-07-19T19:42:43.343Z,39.35
2018-07-19T19:45:11.388Z,39.07
2018-07-19T19:47:39.441Z,39.52
2018-07-19T19:50:08.199Z,39.92
2018-07-19T19:52:36.448Z,40.17
2018-07-19T19:55:04.856Z,39.66
2018-07-19T19:57:33.197Z,40.42
2018-07-19T20:00:01.268Z,40.73
2018-07-19T20:02:29.336Z,39.93
2018-07-19T20:04:57.356Z,40.04
2018-07-19T20:07:25.405Z,39.99
2018-07-19T20:09:53.434Z,40.87
2018-07-19T20:12:21.620Z,40.61
2018-07-19T20:14:49.855Z,40.93
2018-07-19T20:17:17.873Z,40.49
2018-07-19T20:19:45.906Z,40.29
2018-07-19T20:22:13.954Z,40.49
2018-07-19T20:24:42.597Z,40.64
2018-07-19T20:27:10.905Z,41.65
2018-07-19T20:29:39.038Z,40.58
2018-07-19T20:32:07.096Z,41.33
2018-07-19T20:34:35.165Z,41.92
2018-07-19T20:37:03.162Z,41.36
2018-07-19T20:39:31.277Z,42.33
2018-07-19T20:41:59.327Z,42.81
2018-07-19T20:44:27.368Z,42.58
2018-07-19T20:46:55.446Z,42.83
2018-07-19T20:49:34.425Z,42.43
2018-07-19T20:52:02.468Z,42.90
2018-07-19T20:54:30.505Z,42.69
2018-07-19T20:56:58.550Z,43.54
2018-07-19T20:59:32.189Z,43.07
2018-07-19T21:02:01.169Z,44.08
2018-07-19T21:04:29.222Z,43.84
2018-07-19T21:06:57.320Z,44.62
2018-07-19T21:09:25.362Z,44.73
2018-07-19T21:11:53.397Z,45.68
2018-07-19T21:14:21.513Z,45.15
2018-07-19T21:16:49.633Z,45.54
2018-07-19T21:19:17.793Z,46.22
2018-07-19T21:21:45.826Z,46.37
2018-07-19T21:24:13.863Z,46.82
2018-07-19T21:26:41.897Z,46.75
2018-07-19T21:29:09.938Z,47.16
2018-07-19T21:31:38.075Z,46.97
2018-07-19T21:34:06.100Z,47.00
2018-07-19T21:36:34.149Z,47.68
2018-07-19T21:39:02.244Z,48.19
2018-07-19T21:41:30.281Z,47.50
2018-07-19T21:43:58.329Z,48.32
2018-07-19T21:46:26.356Z,48.24
2018-07-19T21:48:54.402Z,48.74
2018-07-19T21:51:22.441Z,48.62
2018-07-19T21:53:50.468Z,48.12
2018-07-19T21:56:19.361Z,48.69
2018-07-19T21:58:47.401Z,48.85
2018-07-19T22:01:15.429Z,49.03
2018-07-19T22:03:44.195Z,48.95
2018-07-19T22:06:12.252Z,49.03
2018-07-19T22:08:40.279Z,48.96
2018-07-19T22:11:08.297Z,48.94
2018-07-19T22:13:36.333Z,49.32
2018-07-19T22:16:04.903Z,50.00
2018-07-19T22:18:32.917Z,49.19
2018-07-19T22:21:00.939Z,50.17
2018-07-19T22:23:28.968Z,50.29
2018-07-19T22:25:57.050Z,49.76
2018-07-19T22:28:25.013Z,50.68
2018-07-19T22:30:53.265Z,50.82
2018-07-19T22:33:21.305Z,50.50
2018-07-19T22:35:50.029Z,51.12
2018-07-19T22:38:18.065Z,50.80
2018-07-19T22:40:46.118Z,50.59
2018-07-19T22:43:14.224Z,50.39
2018-07-19T22:45:42.245Z,50.65
2018-07-19T22:48:10.285Z,51.40
2018-07-19T22:50:38.317Z,51.51
2018-07-19T22:53:06.837Z,50.86
2018-07-19T22:55:34.898Z,50.71
2018-07-19T22:58:02.947Z,51.44
2018-07-19T23:00:31.013Z,51.38
2018-07-19T23:02:59.101Z,51.46
2018-07-19T23:05:27.128Z,52.14
2018-07-19T23:07:55.188Z,51.31
2018-07-19T23:10:23.204Z,52.13
2018-07-19T23:12:51.228Z,52.02
2018-07-19T23:15:19.516Z,51.49
2018-07-19T23:17:47.545Z,51.16
2018-07-19T23:20:15.556Z,51.16
2018-07-19T23:22:53.301Z,51.89
2018-07-19T23:25:21.341Z,52.01
2018-07-19T23:27:49.360Z,51.98
2018-07-19T23:30:17.864Z,51.33
2018-07-19T23:32:45.885Z,51.97
2018-07-19T23:35:13.911Z,52.29
2018-07-19T23:37:43.236Z,51.40
2018-07-19T23:40:15.817Z,51.91
2018-07-19T23:42:46.883Z,51.92
2018-07-19T23:45:20.148Z,51.71
2018-07-19T23:47:48.438Z,52.17
2018-07-19T23:50:16.452Z,52.30
2018-07-19T23:52:44.469Z,52.41
2018-07-19T23:55:12.498Z,52.19
2018-07-19T23:57:40.504Z,51.70
